sensor_id;sensor_type;location;lat;lon;timestamp;temperature;humidity
22917;DHT22;11624;53.250;7.456;2022-07-29T00:02:27;19.87;52.46
22917;DHT22;11624;53.250;7.456;2022-07-29T00:04:56;19.85;52.56
22917;DHT22;11624;53.250;7.456;2022-07-29T00:07:24;19.87;52.56
22917;DHT22;11624;53.250;7.456;2022-07-29T00:09:53;19.87;52.60
22917;DHT22;11624;53.250;7.456;2022-07-29T00:12:24;19.89;52.53
22917;DHT22;11624;53.250;7.456;2022-07-29T00:14:53;19.91;52.69
22917;DHT22;11624;53.250;7.456;2022-07-29T00:17:22;19.94;52.55
22917;DHT22;11624;53.250;7.456;2022-07-29T00:19:50;19.95;52.59
22917;DHT22;11624;53.250;7.456;2022-07-29T00:22:19;19.94;52.69
22917;DHT22;11624;53.250;7.456;2022-07-29T00:24:48;19.96;52.69
22917;DHT22;11624;53.250;7.456;2022-07-29T00:27:16;19.96;52.73
22917;DHT22;11624;53.250;7.456;2022-07-29T00:29:47;19.95;52.70
22917;DHT22;11624;53.250;7.456;2022-07-29T00:32:15;19.97;52.73
22917;DHT22;11624;53.250;7.456;2022-07-29T00:34:44;19.94;52.77
22917;DHT22;11624;53.250;7.456;2022-07-29T00:37:30;19.95;52.78
22917;DHT22;11624;53.250;7.456;2022-07-29T00:40:03;19.96;52.78
22917;DHT22;11624;53.250;7.456;2022-07-29T00:42:41;19.97;52.54
22917;DHT22;11624;53.250;7.456;2022-07-29T00:45:11;19.99;52.64
22917;DHT22;11624;53.250;7.456;2022-07-29T00:47:40;20.03;52.59
22917;DHT22;11624;53.250;7.456;2022-07-29T00:50:10;20.03;52.62
22917;DHT22;11624;53.250;7.456;2022-07-29T00:52:41;20.03;52.68
22917;DHT22;11624;53.250;7.456;2022-07-29T00:55:12;20.06;52.59
22917;DHT22;11624;53.250;7.456;2022-07-29T00:57:41;20.09;52.59
22917;DHT22;11624;53.250;7.456;2022-07-29T01:00:15;20.09;52.41
22917;DHT22;11624;53.250;7.456;2022-07-29T01:02:46;20.12;52.46
22917;DHT22;11624;53.250;7.456;2022-07-29T01:05:20;20.09;52.47
22917;DHT22;11624;53.250;7.456;2022-07-29T01:07:51;20.09;52.54
22917;DHT22;11624;53.250;7.456;2022-07-29T01:10:26;20.10;52.52
22917;DHT22;11624;53.250;7.456;2022-07-29T01:12:58;20.10;52.44
22917;DHT22;11624;53.250;7.456;2022-07-29T01:15:45;20.07;52.26
22917;DHT22;11624;53.250;7.456;2022-07-29T01:18:41;20.06;52.20
22917;DHT22;11624;53.250;7.456;2022-07-29T01:21:33;20.10;52.14
22917;DHT22;11624;53.250;7.456;2022-07-29T01:24:18;20.16;52.11
22917;DHT22;11624;53.250;7.456;2022-07-29T01:26:56;20.18;52.09
22917;DHT22;11624;53.250;7.456;2022-07-29T01:29:30;20.19;52.14
22917;DHT22;11624;53.250;7.456;2022-07-29T01:32:10;20.16;52.33
22917;DHT22;11624;53.250;7.456;2022-07-29T01:35:02;20.16;52.21
22917;DHT22;11624;53.250;7.456;2022-07-29T01:37:55;20.16;52.17
22917;DHT22;11624;53.250;7.456;2022-07-29T01:40:29;20.17;52.39
22917;DHT22;11624;53.250;7.456;2022-07-29T01:43:03;20.16;52.39
22917;DHT22;11624;53.250;7.456;2022-07-29T01:45:40;20.17;52.39
22917;DHT22;11624;53.250;7.456;2022-07-29T01:48:15;20.20;52.52
22917;DHT22;11624;53.250;7.456;2022-07-29T01:50:48;20.21;52.44
22917;DHT22;11624;53.250;7.456;2022-07-29T01:53:23;20.25;52.27
22917;DHT22;11624;53.250;7.456;2022-07-29T01:56:03;20.21;52.48
22917;DHT22;11624;53.250;7.456;2022-07-29T01:58:36;20.19;52.57
22917;DHT22;11624;53.250;7.456;2022-07-29T02:01:16;20.20;52.50
22917;DHT22;11624;53.250;7.456;2022-07-29T02:03:47;20.21;52.57
22917;DHT22;11624;53.250;7.456;2022-07-29T02:06:20;20.25;52.37
22917;DHT22;11624;53.250;7.456;2022-07-29T02:08:52;20.26;52.37
22917;DHT22;11624;53.250;7.456;2022-07-29T02:11:29;20.26;52.20
22917;DHT22;11624;53.250;7.456;2022-07-29T02:14:00;20.29;52.44
22917;DHT22;11624;53.250;7.456;2022-07-29T02:16:31;20.27;52.27
22917;DHT22;11624;53.250;7.456;2022-07-29T02:19:04;20.29;52.30
22917;DHT22;11624;53.250;7.456;2022-07-29T02:21:33;20.29;52.40
22917;DHT22;11624;53.250;7.456;2022-07-29T02:24:05;20.31;52.39
22917;DHT22;11624;53.250;7.456;2022-07-29T02:26:35;20.31;52.30
22917;DHT22;11624;53.250;7.456;2022-07-29T02:29:03;20.32;52.17
22917;DHT22;11624;53.250;7.456;2022-07-29T02:31:34;20.31;52.21
22917;DHT22;11624;53.250;7.456;2022-07-29T02:34:06;20.32;52.31
22917;DHT22;11624;53.250;7.456;2022-07-29T02:36:36;20.32;52.20
22917;DHT22;11624;53.250;7.456;2022-07-29T02:39:08;20.35;52.14
22917;DHT22;11624;53.250;7.456;2022-07-29T02:41:41;20.34;52.01
22917;DHT22;11624;53.250;7.456;2022-07-29T02:44:12;20.35;52.27
22917;DHT22;11624;53.250;7.456;2022-07-29T02:46:48;20.34;51.98
22917;DHT22;11624;53.250;7.456;2022-07-29T02:49:25;20.37;51.91
22917;DHT22;11624;53.250;7.456;2022-07-29T02:52:01;20.39;51.99
22917;DHT22;11624;53.250;7.456;2022-07-29T02:54:38;20.34;52.11
22917;DHT22;11624;53.250;7.456;2022-07-29T02:57:13;20.36;52.01
22917;DHT22;11624;53.250;7.456;2022-07-29T02:59:44;20.36;52.04
22917;DHT22;11624;53.250;7.456;2022-07-29T03:02:15;20.36;51.98
22917;DHT22;11624;53.250;7.456;2022-07-29T03:04:48;20.39;52.04
22917;DHT22;11624;53.250;7.456;2022-07-29T03:07:25;20.40;51.99
22917;DHT22;11624;53.250;7.456;2022-07-29T03:09:56;20.40;51.90
22917;DHT22;11624;53.250;7.456;2022-07-29T03:12:25;20.41;51.95
22917;DHT22;11624;53.250;7.456;2022-07-29T03:14:54;20.39;51.92
22917;DHT22;11624;53.250;7.456;2022-07-29T03:17:24;20.37;51.95
22917;DHT22;11624;53.250;7.456;2022-07-29T03:19:55;20.39;51.99
22917;DHT22;11624;53.250;7.456;2022-07-29T03:48:29;20.31;51.95
22917;DHT22;11624;53.250;7.456;2022-07-29T03:52:15;20.33;51.84
22917;DHT22;11624;53.250;7.456;2022-07-29T03:56:08;20.36;51.74
22917;DHT22;11624;53.250;7.456;2022-07-29T04:00:28;20.37;51.73
22917;DHT22;11624;53.250;7.456;2022-07-29T04:16:27;20.49;51.35
22917;DHT22;11624;53.250;7.456;2022-07-29T04:20:21;20.53;51.24
22917;DHT22;11624;53.250;7.456;2022-07-29T04:49:21;20.77;50.47
22917;DHT22;11624;53.250;7.456;2022-07-29T04:52:52;20.86;50.41
22917;DHT22;11624;53.250;7.456;2022-07-29T04:56:03;20.93;50.41
22917;DHT22;11624;53.250;7.456;2022-07-29T04:59:49;21.00;49.97
22917;DHT22;11624;53.250;7.456;2022-07-29T05:03:45;21.02;49.85
22917;DHT22;11624;53.250;7.456;2022-07-29T05:07:41;21.08;49.61
22917;DHT22;11624;53.250;7.456;2022-07-29T05:15:35;21.17;49.37
22917;DHT22;11624;53.250;7.456;2022-07-29T05:19:04;21.20;49.20
22917;DHT22;11624;53.250;7.456;2022-07-29T05:22:10;21.25;49.21
22917;DHT22;11624;53.250;7.456;2022-07-29T05:25:18;21.31;49.23
22917;DHT22;11624;53.250;7.456;2022-07-29T05:35:55;21.39;48.67
22917;DHT22;11624;53.250;7.456;2022-07-29T05:39:55;21.37;48.90
22917;DHT22;11624;53.250;7.456;2022-07-29T05:47:52;21.50;48.83
22917;DHT22;11624;53.250;7.456;2022-07-29T05:50:20;21.58;48.72
22917;DHT22;11624;53.250;7.456;2022-07-29T05:52:48;21.61;48.98
22917;DHT22;11624;53.250;7.456;2022-07-29T05:55:16;21.68;48.78
22917;DHT22;11624;53.250;7.456;2022-07-29T05:57:44;21.73;48.45
22917;DHT22;11624;53.250;7.456;2022-07-29T06:00:13;21.77;48.79
22917;DHT22;11624;53.250;7.456;2022-07-29T06:02:42;21.82;48.44
22917;DHT22;11624;53.250;7.456;2022-07-29T06:05:18;21.87;48.29
22917;DHT22;11624;53.250;7.456;2022-07-29T06:07:46;21.91;48.31
22917;DHT22;11624;53.250;7.456;2022-07-29T06:10:17;21.93;48.24
22917;DHT22;11624;53.250;7.456;2022-07-29T06:12:57;21.97;48.06
22917;DHT22;11624;53.250;7.456;2022-07-29T06:15:25;22.03;47.88
22917;DHT22;11624;53.250;7.456;2022-07-29T06:17:53;22.04;47.97
22917;DHT22;11624;53.250;7.456;2022-07-29T06:20:31;22.10;47.86
22917;DHT22;11624;53.250;7.456;2022-07-29T06:23:00;22.18;47.31
22917;DHT22;11624;53.250;7.456;2022-07-29T06:25:30;22.20;47.60
22917;DHT22;11624;53.250;7.456;2022-07-29T06:27:59;22.24;47.38
22917;DHT22;11624;53.250;7.456;2022-07-29T06:30:31;22.33;47.00
22917;DHT22;11624;53.250;7.456;2022-07-29T06:32:59;22.37;46.93
22917;DHT22;11624;53.250;7.456;2022-07-29T06:35:28;22.41;47.01
22917;DHT22;11624;53.250;7.456;2022-07-29T06:38:08;22.46;46.99
22917;DHT22;11624;53.250;7.456;2022-07-29T06:40:58;22.56;46.82
22917;DHT22;11624;53.250;7.456;2022-07-29T06:43:32;22.72;46.53
22917;DHT22;11624;53.250;7.456;2022-07-29T06:46:20;22.83;46.43
22917;DHT22;11624;53.250;7.456;2022-07-29T06:48:50;22.98;45.70
22917;DHT22;11624;53.250;7.456;2022-07-29T06:51:19;22.99;45.93
22917;DHT22;11624;53.250;7.456;2022-07-29T06:53:51;23.03;45.79
22917;DHT22;11624;53.250;7.456;2022-07-29T06:56:25;23.11;45.64
22917;DHT22;11624;53.250;7.456;2022-07-29T06:58:53;23.20;45.75
22917;DHT22;11624;53.250;7.456;2022-07-29T07:01:22;23.26;45.77
22917;DHT22;11624;53.250;7.456;2022-07-29T07:03:50;23.31;45.33
22917;DHT22;11624;53.250;7.456;2022-07-29T07:06:18;23.39;45.02
22917;DHT22;11624;53.250;7.456;2022-07-29T07:08:46;23.40;45.16
22917;DHT22;11624;53.250;7.456;2022-07-29T07:11:16;23.46;44.83
22917;DHT22;11624;53.250;7.456;2022-07-29T07:14:08;23.53;44.80
22917;DHT22;11624;53.250;7.456;2022-07-29T07:16:37;23.57;45.03
22917;DHT22;11624;53.250;7.456;2022-07-29T07:19:05;23.65;45.35
22917;DHT22;11624;53.250;7.456;2022-07-29T07:21:33;23.76;44.65
22917;DHT22;11624;53.250;7.456;2022-07-29T07:24:03;23.86;44.90
22917;DHT22;11624;53.250;7.456;2022-07-29T07:26:33;24.00;44.45
22917;DHT22;11624;53.250;7.456;2022-07-29T07:29:01;24.08;44.41
22917;DHT22;11624;53.250;7.456;2022-07-29T07:31:32;24.18;43.90
22917;DHT22;11624;53.250;7.456;2022-07-29T07:34:04;24.28;44.11
22917;DHT22;11624;53.250;7.456;2022-07-29T07:36:32;24.36;43.67
22917;DHT22;11624;53.250;7.456;2022-07-29T07:39:00;24.48;43.60
22917;DHT22;11624;53.250;7.456;2022-07-29T07:41:30;24.64;43.48
22917;DHT22;11624;53.250;7.456;2022-07-29T07:44:00;24.82;43.02
22917;DHT22;11624;53.250;7.456;2022-07-29T07:46:28;24.93;42.60
22917;DHT22;11624;53.250;7.456;2022-07-29T07:48:56;25.00;42.00
22917;DHT22;11624;53.250;7.456;2022-07-29T07:51:24;25.06;42.39
22917;DHT22;11624;53.250;7.456;2022-07-29T07:53:52;25.17;41.52
22917;DHT22;11624;53.250;7.456;2022-07-29T07:56:20;25.23;41.96
22917;DHT22;11624;53.250;7.456;2022-07-29T07:58:48;25.34;40.85
22917;DHT22;11624;53.250;7.456;2022-07-29T08:01:18;25.49;41.33
22917;DHT22;11624;53.250;7.456;2022-07-29T08:03:49;25.71;40.37
22917;DHT22;11624;53.250;7.456;2022-07-29T08:06:19;25.93;40.39
22917;DHT22;11624;53.250;7.456;2022-07-29T08:08:47;26.16;39.88
22917;DHT22;11624;53.250;7.456;2022-07-29T08:11:15;26.13;40.26
22917;DHT22;11624;53.250;7.456;2022-07-29T08:13:43;26.23;39.67
22917;DHT22;11624;53.250;7.456;2022-07-29T08:16:13;26.43;39.62
22917;DHT22;11624;53.250;7.456;2022-07-29T08:18:45;26.82;39.85
22917;DHT22;11624;53.250;7.456;2022-07-29T08:21:16;27.20;37.96
22917;DHT22;11624;53.250;7.456;2022-07-29T08:23:44;27.34;37.93
22917;DHT22;11624;53.250;7.456;2022-07-29T08:26:25;27.36;36.97
22917;DHT22;11624;53.250;7.456;2022-07-29T08:28:55;27.26;36.59
22917;DHT22;11624;53.250;7.456;2022-07-29T08:31:25;27.22;37.12
22917;DHT22;11624;53.250;7.456;2022-07-29T08:33:55;27.25;37.01
22917;DHT22;11624;53.250;7.456;2022-07-29T08:36:28;27.26;36.92
22917;DHT22;11624;53.250;7.456;2022-07-29T08:38:56;27.25;37.59
22917;DHT22;11624;53.250;7.456;2022-07-29T08:41:25;27.28;37.28
22917;DHT22;11624;53.250;7.456;2022-07-29T08:43:53;27.31;37.62
22917;DHT22;11624;53.250;7.456;2022-07-29T08:46:22;27.32;36.65
22917;DHT22;11624;53.250;7.456;2022-07-29T08:48:51;27.32;37.87
22917;DHT22;11624;53.250;7.456;2022-07-29T08:51:21;27.36;37.23
22917;DHT22;11624;53.250;7.456;2022-07-29T08:53:50;27.40;36.85
22917;DHT22;11624;53.250;7.456;2022-07-29T08:56:20;27.41;37.17
22917;DHT22;11624;53.250;7.456;2022-07-29T08:58:49;27.47;36.92
22917;DHT22;11624;53.250;7.456;2022-07-29T09:01:25;27.47;37.08
22917;DHT22;11624;53.250;7.456;2022-07-29T09:04:07;27.59;37.39
22917;DHT22;11624;53.250;7.456;2022-07-29T09:06:52;27.79;37.79
22917;DHT22;11624;53.250;7.456;2022-07-29T09:09:24;27.96;36.60
22917;DHT22;11624;53.250;7.456;2022-07-29T09:11:54;28.05;34.92
22917;DHT22;11624;53.250;7.456;2022-07-29T09:14:24;28.05;35.85
22917;DHT22;11624;53.250;7.456;2022-07-29T09:16:56;28.00;35.53
22917;DHT22;11624;53.250;7.456;2022-07-29T09:19:26;28.08;36.53
22917;DHT22;11624;53.250;7.456;2022-07-29T09:21:57;28.20;35.45
22917;DHT22;11624;53.250;7.456;2022-07-29T09:24:38;28.26;34.35
22917;DHT22;11624;53.250;7.456;2022-07-29T09:27:18;28.16;34.67
22917;DHT22;11624;53.250;7.456;2022-07-29T09:29:55;28.20;35.23
22917;DHT22;11624;53.250;7.456;2022-07-29T09:32:24;28.35;35.70
22917;DHT22;11624;53.250;7.456;2022-07-29T09:35:14;28.47;35.56
22917;DHT22;11624;53.250;7.456;2022-07-29T09:37:44;28.74;35.10
22917;DHT22;11624;53.250;7.456;2022-07-29T09:40:15;28.84;34.76
22917;DHT22;11624;53.250;7.456;2022-07-29T09:42:46;28.94;35.39
22917;DHT22;11624;53.250;7.456;2022-07-29T09:45:27;28.99;33.76
22917;DHT22;11624;53.250;7.456;2022-07-29T09:47:55;29.03;33.80
22917;DHT22;11624;53.250;7.456;2022-07-29T09:50:35;29.09;34.47
22917;DHT22;11624;53.250;7.456;2022-07-29T09:53:05;29.22;34.22
22917;DHT22;11624;53.250;7.456;2022-07-29T09:55:46;29.34;34.03
22917;DHT22;11624;53.250;7.456;2022-07-29T09:58:16;29.41;32.70
22917;DHT22;11624;53.250;7.456;2022-07-29T10:00:45;29.32;33.76
22917;DHT22;11624;53.250;7.456;2022-07-29T10:03:18;29.43;34.10
22917;DHT22;11624;53.250;7.456;2022-07-29T10:06:04;29.65;33.95
22917;DHT22;11624;53.250;7.456;2022-07-29T10:08:36;29.93;32.69
22917;DHT22;11624;53.250;7.456;2022-07-29T10:11:11;30.09;32.67
22917;DHT22;11624;53.250;7.456;2022-07-29T10:13:44;30.19;32.69
22917;DHT22;11624;53.250;7.456;2022-07-29T10:16:17;30.26;33.36
22917;DHT22;11624;53.250;7.456;2022-07-29T10:18:47;30.45;32.76
22917;DHT22;11624;53.250;7.456;2022-07-29T10:21:17;30.60;31.98
22917;DHT22;11624;53.250;7.456;2022-07-29T10:24:09;30.74;31.18
22917;DHT22;11624;53.250;7.456;2022-07-29T10:26:42;30.70;31.53
22917;DHT22;11624;53.250;7.456;2022-07-29T10:29:14;30.67;31.75
22917;DHT22;11624;53.250;7.456;2022-07-29T10:31:55;30.81;32.44
22917;DHT22;11624;53.250;7.456;2022-07-29T10:34:32;30.97;32.54
22917;DHT22;11624;53.250;7.456;2022-07-29T10:37:12;31.13;33.28
22917;DHT22;11624;53.250;7.456;2022-07-29T10:39:55;31.30;32.97
22917;DHT22;11624;53.250;7.456;2022-07-29T10:42:28;31.44;32.25
22917;DHT22;11624;53.250;7.456;2022-07-29T10:45:18;31.53;32.44
22917;DHT22;11624;53.250;7.456;2022-07-29T10:47:49;31.63;32.21
22917;DHT22;11624;53.250;7.456;2022-07-29T10:50:56;31.71;32.70
22917;DHT22;11624;53.250;7.456;2022-07-29T10:53:52;31.72;31.48
22917;DHT22;11624;53.250;7.456;2022-07-29T10:56:35;31.73;31.40
22917;DHT22;11624;53.250;7.456;2022-07-29T10:59:23;31.65;31.51
22917;DHT22;11624;53.250;7.456;2022-07-29T11:05:21;31.57;31.36
22917;DHT22;11624;53.250;7.456;2022-07-29T11:08:25;31.57;32.41
22917;DHT22;11624;53.250;7.456;2022-07-29T11:14:15;31.46;32.01
22917;DHT22;11624;53.250;7.456;2022-07-29T11:17:04;31.43;33.44
22917;DHT22;11624;53.250;7.456;2022-07-29T11:19:34;31.53;32.78
22917;DHT22;11624;53.250;7.456;2022-07-29T11:22:09;31.60;31.93
22917;DHT22;11624;53.250;7.456;2022-07-29T11:24:42;31.53;32.41
22917;DHT22;11624;53.250;7.456;2022-07-29T11:27:18;31.53;32.06
22917;DHT22;11624;53.250;7.456;2022-07-29T11:29:53;31.58;31.78
22917;DHT22;11624;53.250;7.456;2022-07-29T11:32:23;31.57;33.05
22917;DHT22;11624;53.250;7.456;2022-07-29T11:35:17;31.68;32.41
22917;DHT22;11624;53.250;7.456;2022-07-29T11:38:24;31.66;31.32
22917;DHT22;11624;53.250;7.456;2022-07-29T11:41:19;31.51;29.59
22917;DHT22;11624;53.250;7.456;2022-07-29T11:43:50;31.44;29.51
22917;DHT22;11624;53.250;7.456;2022-07-29T11:46:47;31.42;30.13
22917;DHT22;11624;53.250;7.456;2022-07-29T11:49:19;31.43;28.50
22917;DHT22;11624;53.250;7.456;2022-07-29T11:51:59;31.33;29.77
22917;DHT22;11624;53.250;7.456;2022-07-29T11:54:32;31.33;29.58
22917;DHT22;11624;53.250;7.456;2022-07-29T11:57:21;31.13;29.06
22917;DHT22;11624;53.250;7.456;2022-07-29T12:00:04;31.06;29.67
22917;DHT22;11624;53.250;7.456;2022-07-29T12:02:41;31.14;28.65
22917;DHT22;11624;53.250;7.456;2022-07-29T12:05:14;31.04;28.67
22917;DHT22;11624;53.250;7.456;2022-07-29T12:08:07;31.04;30.02
22917;DHT22;11624;53.250;7.456;2022-07-29T12:10:41;31.21;28.16
22917;DHT22;11624;53.250;7.456;2022-07-29T12:13:10;31.26;27.84
22917;DHT22;11624;53.250;7.456;2022-07-29T12:15:40;31.31;28.98
22917;DHT22;11624;53.250;7.456;2022-07-29T12:18:17;31.39;28.86
22917;DHT22;11624;53.250;7.456;2022-07-29T12:20:57;31.39;28.45
22917;DHT22;11624;53.250;7.456;2022-07-29T12:23:29;31.33;28.03
22917;DHT22;11624;53.250;7.456;2022-07-29T12:26:04;31.20;28.65
22917;DHT22;11624;53.250;7.456;2022-07-29T12:28:37;31.14;28.93
22917;DHT22;11624;53.250;7.456;2022-07-29T12:31:12;30.94;29.10
22917;DHT22;11624;53.250;7.456;2022-07-29T12:34:02;30.93;30.83
22917;DHT22;11624;53.250;7.456;2022-07-29T12:36:31;30.98;30.42
22917;DHT22;11624;53.250;7.456;2022-07-29T12:39:00;30.90;30.76
22917;DHT22;11624;53.250;7.456;2022-07-29T12:41:28;30.91;31.06
22917;DHT22;11624;53.250;7.456;2022-07-29T12:43:57;30.86;31.22
22917;DHT22;11624;53.250;7.456;2022-07-29T12:46:26;30.77;30.94
22917;DHT22;11624;53.250;7.456;2022-07-29T12:48:55;30.79;30.88
22917;DHT22;11624;53.250;7.456;2022-07-29T12:51:32;30.72;32.09
22917;DHT22;11624;53.250;7.456;2022-07-29T12:54:10;30.71;32.26
22917;DHT22;11624;53.250;7.456;2022-07-29T12:56:40;30.81;32.83
22917;DHT22;11624;53.250;7.456;2022-07-29T12:59:12;30.86;31.19
22917;DHT22;11624;53.250;7.456;2022-07-29T13:01:41;30.79;30.61
22917;DHT22;11624;53.250;7.456;2022-07-29T13:04:10;30.82;31.09
22917;DHT22;11624;53.250;7.456;2022-07-29T13:06:41;30.74;32.01
22917;DHT22;11624;53.250;7.456;2022-07-29T13:09:18;30.70;31.90
22917;DHT22;11624;53.250;7.456;2022-07-29T13:11:51;30.63;31.33
22917;DHT22;11624;53.250;7.456;2022-07-29T13:14:30;30.46;31.32
22917;DHT22;11624;53.250;7.456;2022-07-29T13:17:05;30.38;32.21
22917;DHT22;11624;53.250;7.456;2022-07-29T13:19:38;30.33;32.86
22917;DHT22;11624;53.250;7.456;2022-07-29T13:22:10;30.32;34.10
22917;DHT22;11624;53.250;7.456;2022-07-29T13:24:46;30.28;34.13
22917;DHT22;11624;53.250;7.456;2022-07-29T13:27:15;30.25;35.20
22917;DHT22;11624;53.250;7.456;2022-07-29T13:29:44;30.21;35.66
22917;DHT22;11624;53.250;7.456;2022-07-29T13:32:13;30.16;36.24
22917;DHT22;11624;53.250;7.456;2022-07-29T13:34:41;30.04;36.35
22917;DHT22;11624;53.250;7.456;2022-07-29T13:37:11;30.00;36.49
22917;DHT22;11624;53.250;7.456;2022-07-29T13:39:40;29.93;37.70
22917;DHT22;11624;53.250;7.456;2022-07-29T13:42:18;29.91;38.41
22917;DHT22;11624;53.250;7.456;2022-07-29T13:44:47;29.86;38.80
22917;DHT22;11624;53.250;7.456;2022-07-29T13:47:17;29.83;39.17
22917;DHT22;11624;53.250;7.456;2022-07-29T13:49:46;29.79;40.01
22917;DHT22;11624;53.250;7.456;2022-07-29T13:52:16;29.77;40.57
22917;DHT22;11624;53.250;7.456;2022-07-29T13:54:44;29.73;40.89
22917;DHT22;11624;53.250;7.456;2022-07-29T13:57:14;29.73;40.79
22917;DHT22;11624;53.250;7.456;2022-07-29T13:59:43;29.71;40.71
22917;DHT22;11624;53.250;7.456;2022-07-29T14:02:16;29.65;41.13
22917;DHT22;11624;53.250;7.456;2022-07-29T14:04:45;29.63;41.84
22917;DHT22;11624;53.250;7.456;2022-07-29T14:07:13;29.60;42.37
22917;DHT22;11624;53.250;7.456;2022-07-29T14:09:44;29.56;42.68
22917;DHT22;11624;53.250;7.456;2022-07-29T14:12:12;29.49;42.51
22917;DHT22;11624;53.250;7.456;2022-07-29T14:14:40;29.39;42.11
22917;DHT22;11624;53.250;7.456;2022-07-29T14:17:09;29.33;43.06
22917;DHT22;11624;53.250;7.456;2022-07-29T14:19:38;29.31;43.19
22917;DHT22;11624;53.250;7.456;2022-07-29T14:22:07;29.21;42.71
22917;DHT22;11624;53.250;7.456;2022-07-29T14:24:36;29.17;43.09
22917;DHT22;11624;53.250;7.456;2022-07-29T14:27:07;29.13;43.87
22917;DHT22;11624;53.250;7.456;2022-07-29T14:29:36;29.09;44.32
22917;DHT22;11624;53.250;7.456;2022-07-29T14:32:06;29.03;44.92
22917;DHT22;11624;53.250;7.456;2022-07-29T14:34:34;29.05;44.70
22917;DHT22;11624;53.250;7.456;2022-07-29T14:37:04;29.06;44.79
22917;DHT22;11624;53.250;7.456;2022-07-29T14:39:34;29.05;43.67
22917;DHT22;11624;53.250;7.456;2022-07-29T14:42:10;29.00;43.47
22917;DHT22;11624;53.250;7.456;2022-07-29T14:44:40;29.01;43.54
22917;DHT22;11624;53.250;7.456;2022-07-29T14:47:10;29.01;44.99
22917;DHT22;11624;53.250;7.456;2022-07-29T14:49:39;29.01;44.66
22917;DHT22;11624;53.250;7.456;2022-07-29T14:52:07;29.00;45.03
22917;DHT22;11624;53.250;7.456;2022-07-29T14:54:36;29.01;45.18
22917;DHT22;11624;53.250;7.456;2022-07-29T14:57:05;29.01;45.32
22917;DHT22;11624;53.250;7.456;2022-07-29T14:59:35;29.01;45.52
22917;DHT22;11624;53.250;7.456;2022-07-29T15:02:04;29.02;46.10
22917;DHT22;11624;53.250;7.456;2022-07-29T15:04:33;28.97;45.94
22917;DHT22;11624;53.250;7.456;2022-07-29T15:07:02;28.95;46.64
22917;DHT22;11624;53.250;7.456;2022-07-29T15:09:31;29.00;46.63
22917;DHT22;11624;53.250;7.456;2022-07-29T15:12:07;28.95;46.67
22917;DHT22;11624;53.250;7.456;2022-07-29T15:14:38;28.90;47.42
22917;DHT22;11624;53.250;7.456;2022-07-29T15:17:07;28.91;45.99
22917;DHT22;11624;53.250;7.456;2022-07-29T15:19:35;28.87;46.45
22917;DHT22;11624;53.250;7.456;2022-07-29T15:22:05;28.85;46.96
22917;DHT22;11624;53.250;7.456;2022-07-29T15:24:34;28.80;47.14
22917;DHT22;11624;53.250;7.456;2022-07-29T15:27:02;28.73;47.14
22917;DHT22;11624;53.250;7.456;2022-07-29T15:29:31;28.67;47.53
22917;DHT22;11624;53.250;7.456;2022-07-29T15:32:01;28.62;47.40
22917;DHT22;11624;53.250;7.456;2022-07-29T15:34:29;28.50;48.02
22917;DHT22;11624;53.250;7.456;2022-07-29T15:36:57;28.40;48.51
22917;DHT22;11624;53.250;7.456;2022-07-29T15:39:26;28.35;48.84
22917;DHT22;11624;53.250;7.456;2022-07-29T15:41:54;28.34;48.87
22917;DHT22;11624;53.250;7.456;2022-07-29T15:44:23;28.32;48.86
22917;DHT22;11624;53.250;7.456;2022-07-29T15:46:52;28.41;48.57
22917;DHT22;11624;53.250;7.456;2022-07-29T15:49:35;28.44;48.55
22917;DHT22;11624;53.250;7.456;2022-07-29T15:52:16;28.47;48.42
22917;DHT22;11624;53.250;7.456;2022-07-29T15:54:53;28.49;47.62
22917;DHT22;11624;53.250;7.456;2022-07-29T15:57:22;28.57;47.75
22917;DHT22;11624;53.250;7.456;2022-07-29T15:59:50;28.63;47.53
22917;DHT22;11624;53.250;7.456;2022-07-29T16:02:19;28.73;48.20
22917;DHT22;11624;53.250;7.456;2022-07-29T16:04:49;28.84;48.07
22917;DHT22;11624;53.250;7.456;2022-07-29T16:07:17;28.91;47.88
22917;DHT22;11624;53.250;7.456;2022-07-29T16:09:46;28.95;46.82
22917;DHT22;11624;53.250;7.456;2022-07-29T16:12:19;29.04;46.85
22917;DHT22;11624;53.250;7.456;2022-07-29T16:14:47;29.18;46.31
22917;DHT22;11624;53.250;7.456;2022-07-29T16:17:18;29.27;45.06
22917;DHT22;11624;53.250;7.456;2022-07-29T16:19:46;29.33;45.03
22917;DHT22;11624;53.250;7.456;2022-07-29T16:22:16;29.42;43.84
22917;DHT22;11624;53.250;7.456;2022-07-29T16:24:44;29.38;43.16
22917;DHT22;11624;53.250;7.456;2022-07-29T16:27:13;29.33;44.96
22917;DHT22;11624;53.250;7.456;2022-07-29T16:29:42;29.26;44.51
22917;DHT22;11624;53.250;7.456;2022-07-29T16:32:12;29.29;45.19
22917;DHT22;11624;53.250;7.456;2022-07-29T16:34:48;29.31;44.97
22917;DHT22;11624;53.250;7.456;2022-07-29T16:37:18;29.38;44.03
22917;DHT22;11624;53.250;7.456;2022-07-29T16:39:49;29.33;44.21
22917;DHT22;11624;53.250;7.456;2022-07-29T16:42:18;29.38;43.82
22917;DHT22;11624;53.250;7.456;2022-07-29T16:45:07;29.48;42.98
22917;DHT22;11624;53.250;7.456;2022-07-29T16:47:36;29.39;43.62
22917;DHT22;11624;53.250;7.456;2022-07-29T16:50:05;29.47;44.34
22917;DHT22;11624;53.250;7.456;2022-07-29T16:52:36;29.62;43.61
22917;DHT22;11624;53.250;7.456;2022-07-29T16:55:05;29.79;44.29
22917;DHT22;11624;53.250;7.456;2022-07-29T16:57:34;29.86;43.86
22917;DHT22;11624;53.250;7.456;2022-07-29T17:00:03;29.90;43.22
22917;DHT22;11624;53.250;7.456;2022-07-29T17:02:32;29.90;42.92
22917;DHT22;11624;53.250;7.456;2022-07-29T17:05:04;29.90;42.97
22917;DHT22;11624;53.250;7.456;2022-07-29T17:07:49;30.00;43.27
22917;DHT22;11624;53.250;7.456;2022-07-29T17:10:17;30.13;42.16
22917;DHT22;11624;53.250;7.456;2022-07-29T17:12:47;30.18;41.72
22917;DHT22;11624;53.250;7.456;2022-07-29T17:15:16;30.13;41.48
22917;DHT22;11624;53.250;7.456;2022-07-29T17:17:45;30.16;40.82
22917;DHT22;11624;53.250;7.456;2022-07-29T17:20:22;30.02;40.94
22917;DHT22;11624;53.250;7.456;2022-07-29T17:22:53;29.96;40.97
22917;DHT22;11624;53.250;7.456;2022-07-29T17:25:22;29.98;41.64
22917;DHT22;11624;53.250;7.456;2022-07-29T17:27:50;30.04;40.91
22917;DHT22;11624;53.250;7.456;2022-07-29T17:30:23;30.10;40.28
22917;DHT22;11624;53.250;7.456;2022-07-29T17:32:51;30.08;40.37
22917;DHT22;11624;53.250;7.456;2022-07-29T17:35:19;30.06;40.23
22917;DHT22;11624;53.250;7.456;2022-07-29T17:38:06;29.95;40.30
22917;DHT22;11624;53.250;7.456;2022-07-29T17:40:34;29.91;40.36
22917;DHT22;11624;53.250;7.456;2022-07-29T17:43:03;29.87;41.16
22917;DHT22;11624;53.250;7.456;2022-07-29T17:45:35;29.89;41.04
22917;DHT22;11624;53.250;7.456;2022-07-29T17:48:16;30.01;40.39
22917;DHT22;11624;53.250;7.456;2022-07-29T17:50:45;29.98;40.71
22917;DHT22;11624;53.250;7.456;2022-07-29T17:53:15;30.05;41.23